Time;durP1;ratioP1;P1;durP2;ratioP2;P2;SDS_P1;SDS_P2;PMS_P1;PMS_P2;Temp;Humidity;BMP_temperature;BMP_pressure;BME280_temperature;BME280_humidity;BME280_pressure;Samples;Min_cycle;Max_cycle;Signal;HPM_P1;HPM_P2
2022/01/19 00:00:04;;;;;;;;;;;;;;;;;;1031331;28;918;-40
2022/01/19 00:00:34;;;;;;;;;;;;;;;;;;1031333;28;792;-42
2022/01/19 00:01:05;;;;;;;;;;;;;;;;;;1031015;28;993;-40
2022/01/19 00:01:35;;;;;;;;;;;;;;;;;;1031276;28;942;-40
2022/01/19 00:02:05;;;;;;;;;;;;;;;;;;1031285;28;1032;-41
2022/01/19 00:02:36;;;;;;;;;;;;;;;;;;1031417;28;823;-41
2022/01/19 00:03:06;;;;;;;;;;;;;;;;;;1031450;28;784;-41
2022/01/19 00:03:37;;;;;;;;;;;;;;;;;;1031418;28;1055;-40
2022/01/19 00:04:07;;;;;;;;;;;;;;;;;;1031246;28;918;-40
2022/01/19 00:04:37;;;;;;;;;;;;;;;;;;1031296;28;1025;-39
2022/01/19 00:05:08;;;;;;;;;;;;;;;;;;1031479;28;885;-40
2022/01/19 00:05:39;;;;;;;;;;;;;;;;;;1031319;28;949;-40
2022/01/19 00:06:09;;;;;;;;;;;;;;;;;;1031327;28;874;-40
2022/01/19 00:06:39;;;;;;;;;;;;;;;;;;1031388;28;922;-42
2022/01/19 00:07:10;;;;;;;;;;;;;;;;;;1031343;28;1253;-41
2022/01/19 00:07:40;;;;;;;;;;;;;;;;;;1031449;28;878;-41
2022/01/19 00:08:16;;;;;;;;;;;;;;;;;;1031303;28;981;-40
2022/01/19 00:08:46;;;;;;;;;;;;;;;;;;1031356;28;839;-40
2022/01/19 00:09:17;;;;;;;;;;;;;;;;;;1031466;28;1058;-39
2022/01/19 00:09:47;;;;;;;;;;;;;;;;;;1031222;28;930;-41
2022/01/19 00:10:20;;;;;;;;;;;;;;;;;;1031498;28;961;-41
2022/01/19 00:10:51;;;;;;;;;;;;;;;;;;1031065;28;808;-40
2022/01/19 00:11:22;;;;;;;;;;;;;;;;;;1031506;28;870;-41
2022/01/19 00:11:52;;;;;;;;;;;;;;;;;;1031346;28;874;-41
2022/01/19 00:12:22;;;;;;;;;;;;;;;;;;1031262;28;977;-40
2022/01/19 00:12:54;;;;;;;;;;;;;;;;;;1031350;28;890;-41
2022/01/19 00:13:25;;;;;;;;;;;;;;;;;;1031361;28;783;-41
2022/01/19 00:13:55;;;;;;;;;;;;;;;;;;1031385;28;922;-41
2022/01/19 00:14:26;;;;;;;;;;;;;;;;;;1031386;28;926;-41
2022/01/19 00:14:57;;;;;;;;;;;;;;;;;;1031365;28;898;-40
2022/01/19 00:15:28;;;;;;;;;;;;;;;;;;1031387;28;990;-41
2022/01/19 00:15:58;;;;;;;;;;;;;;;;;;1031299;28;957;-41
2022/01/19 00:16:28;;;;;;;;;;;;;;;;;;1031228;28;1891;-41
2022/01/19 00:16:59;;;;;;;;;;;;;;;;;;1031439;28;804;-41
2022/01/19 00:17:29;;;;;;;;;;;;;;;;;;1031125;28;1614;-41
2022/01/19 00:17:59;;;;;;;;;;;;;;;;;;1031461;28;839;-41
2022/01/19 00:18:30;;;;;;;;;;;;;;;;;;1031273;28;917;-41
2022/01/19 00:19:00;;;;;;;;;;;;;;;;;;1031408;28;945;-40
2022/01/19 00:19:30;;;;;;;;;;;;;;;;;;1031341;28;945;-40
2022/01/19 00:20:01;;;;;;;;;;;;;;;;;;1031268;28;938;-40
2022/01/19 00:20:32;;;;;;;;;;;;;;;;;;1031263;28;862;-41
2022/01/19 00:21:02;;;;;;;;;;;;;;;;;;1031320;28;815;-42
2022/01/19 00:21:33;;;;;;;;;;;;;;;;;;1031322;28;816;-41
2022/01/19 00:22:03;;;;;;;;;;;;;;;;;;1031295;28;946;-41
2022/01/19 00:22:34;;;;;;;;;;;;;;;;;;1031400;28;894;-41
2022/01/19 00:23:04;;;;;;;;;;;;;;;;;;1031403;28;942;-40
2022/01/19 00:23:35;;;;;;;;;;;;;;;;;;1031341;28;949;-41
2022/01/19 00:24:06;;;;;;;;;;;;;;;;;;1031235;28;799;-41
2022/01/19 00:24:36;;;;;;;;;;;;;;;;;;1031451;28;831;-40
2022/01/19 00:25:07;;;;;;;;;;;;;;;;;;1031408;28;1013;-40
2022/01/19 00:25:37;;;;;;;;;;;;;;;;;;1031259;28;1033;-41
2022/01/19 00:26:08;;;;;;;;;;;;;;;;;;1031336;28;921;-41
2022/01/19 00:26:38;;;;;;;;;;;;;;;;;;1031178;28;1144;-41
2022/01/19 00:27:08;;;;;;;;;;;;;;;;;;1031474;28;961;-41
2022/01/19 00:27:39;;;;;;;;;;;;;;;;;;1031384;28;854;-41
2022/01/19 00:28:09;;;;;;;;;;;;;;;;;;1031291;28;1001;-41
2022/01/19 00:28:40;;;;;;;;;;;;;;;;;;1031504;28;810;-41
2022/01/19 00:29:10;;;;;;;;;;;;;;;;;;1031319;28;996;-41
2022/01/19 00:29:40;;;;;;;;;;;;;;;;;;1034950;28;997;-41
2022/01/19 00:30:11;;;;;;;;;;;;;;;;;;1035235;28;1157;-41
2022/01/19 00:30:42;;;;;;;;;;;;;;;;;;1034905;28;819;-42
2022/01/19 00:31:12;;;;;;;;;;;;;;;;;;1034991;28;894;-41
2022/01/19 00:31:42;;;;;;;;;;;;;;;;;;1031252;28;958;-41
2022/01/19 00:32:13;;;;;;;;;;;;;;;;;;1026881;28;1126;-42
2022/01/19 00:32:43;;;;;;;;;;;;;;;;;;1027027;28;799;-41
2022/01/19 00:33:14;;;;;;;;;;;;;;;;;;1027010;28;906;-40
2022/01/19 00:33:45;;;;;;;;;;;;;;;;;;1027053;28;1355;-42
2022/01/19 00:34:15;;;;;;;;;;;;;;;;;;1031087;28;973;-41
2022/01/19 00:34:45;;;;;;;;;;;;;;;;;;1030992;28;996;-41
2022/01/19 00:35:16;;;;;;;;;;;;;;;;;;1031067;28;2416;-41
2022/01/19 00:35:47;;;;;;;;;;;;;;;;;;1026891;28;954;-41
2022/01/19 00:36:17;;;;;;;;;;;;;;;;;;1026855;28;1918;-39
2022/01/19 00:36:49;;;;;;;;;;;;;;;;;;1030945;28;1444;-41
2022/01/19 00:37:19;;;;;;;;;;;;;;;;;;1031094;28;866;-40
2022/01/19 00:37:49;;;;;;;;;;;;;;;;;;1030841;28;1063;-40
2022/01/19 00:38:20;;;;;;;;;;;;;;;;;;1030999;28;1082;-41
2022/01/19 00:38:50;;;;;;;;;;;;;;;;;;1026993;28;870;-41
2022/01/19 00:39:24;;;;;;;;;;;;;;;;;;1027052;28;804;-41
2022/01/19 00:39:54;;;;;;;;;;;;;;;;;;1027262;28;926;-41
2022/01/19 00:40:25;;;;;;;;;;;;;;;;;;1027320;28;901;-40
2022/01/19 00:40:57;;;;;;;;;;;;;;;;;;1027333;28;906;-41
2022/01/19 00:41:27;;;;;;;;;;;;;;;;;;1034973;28;1415;-41
2022/01/19 00:41:58;;;;;;;;;;;;;;;;;;1035054;28;746;-41
2022/01/19 00:42:29;;;;;;;;;;;;;;;;;;1034846;28;823;-41
2022/01/19 00:42:59;;;;;;;;;;;;;;;;;;1030961;28;826;-40
2022/01/19 00:43:30;;;;;;;;;;;;;;;;;;1027025;28;862;-41
2022/01/19 00:44:00;;;;;;;;;;;;;;;;;;1026939;28;981;-41
2022/01/19 00:44:30;;;;;;;;;;;;;;;;;;1022956;28;1118;-41
2022/01/19 00:45:01;;;;;;;;;;;;;;;;;;1026927;28;926;-41
2022/01/19 00:45:31;;;;;;;;;;;;;;;;;;1027126;28;857;-40
2022/01/19 00:46:02;;;;;;;;;;;;;;;;;;1027012;28;945;-41
2022/01/19 00:46:33;;;;;;;;;;;;;;;;;;1027223;28;879;-41
2022/01/19 00:47:03;;;;;;;;;;;;;;;;;;1027444;28;921;-40
2022/01/19 00:47:34;;;;;;;;;;;;;;;;;;1027376;28;993;-40
2022/01/19 00:48:04;;;;;;;;;;;;;;;;;;1027233;28;941;-40
2022/01/19 00:48:35;;;;;;;;;;;;;;;;;;1027355;28;972;-40
2022/01/19 00:49:06;;;;;;;;;;;;;;;;;;1031256;28;916;-41
2022/01/19 00:49:37;;;;;;;;;;;;;;;;;;1031115;28;899;-41
2022/01/19 00:50:09;;;;;;;;;;;;;;;;;;1026852;28;957;-40
2022/01/19 00:50:39;;;;;;;;;;;;;;;;;;1026930;28;1017;-41
2022/01/19 00:51:10;;;;;;;;;;;;;;;;;;1026911;28;899;-40
2022/01/19 00:51:40;;;;;;;;;;;;;;;;;;1027418;28;787;-40
2022/01/19 00:52:11;;;;;;;;;;;;;;;;;;1031326;28;934;-41
2022/01/19 00:52:41;;;;;;;;;;;;;;;;;;1031355;28;906;-41
2022/01/19 00:53:12;;;;;;;;;;;;;;;;;;1030983;28;939;-40
2022/01/19 00:53:42;;;;;;;;;;;;;;;;;;1030806;28;981;-41
2022/01/19 00:54:14;;;;;;;;;;;;;;;;;;1030938;28;1295;-42
2022/01/19 00:54:45;;;;;;;;;;;;;;;;;;1030542;28;1520;-40
2022/01/19 00:55:16;;;;;;;;;;;;;;;;;;1027032;28;1001;-40
2022/01/19 00:55:46;;;;;;;;;;;;;;;;;;1026883;28;882;-41
2022/01/19 00:56:16;;;;;;;;;;;;;;;;;;1031413;28;1914;-40
2022/01/19 00:56:47;;;;;;;;;;;;;;;;;;1026883;28;1144;-41
2022/01/19 00:57:17;;;;;;;;;;;;;;;;;;1027011;28;812;-41
2022/01/19 00:57:48;;;;;;;;;;;;;;;;;;1026977;28;1093;-40
2022/01/19 00:58:18;;;;;;;;;;;;;;;;;;1027171;28;926;-41
2022/01/19 00:58:49;;;;;;;;;;;;;;;;;;1031262;28;1173;-39
2022/01/19 00:59:19;;;;;;;;;;;;;;;;;;1027069;28;1121;-41
2022/01/19 00:59:51;;;;;;;;;;;;;;;;;;1026685;28;926;-41
2022/01/19 01:00:24;;;;;;;;;;;;;;;;;;1027063;28;858;-41
2022/01/19 01:00:54;;;;;;;;;;;;;;;;;;1031334;28;1455;-41
2022/01/19 01:01:25;;;;;;;;;;;;;;;;;;1034984;28;791;-41
2022/01/19 01:01:55;;;;;;;;;;;;;;;;;;1035125;28;874;-40
2022/01/19 01:02:26;;;;;;;;;;;;;;;;;;1035015;28;807;-39
2022/01/19 01:02:56;;;;;;;;;;;;;;;;;;1031402;28;807;-41
2022/01/19 01:03:26;;;;;;;;;;;;;;;;;;1031241;28;898;-40
2022/01/19 01:03:57;;;;;;;;;;;;;;;;;;1031280;28;990;-40
2022/01/19 01:04:28;;;;;;;;;;;;;;;;;;1031438;28;938;-41
2022/01/19 01:04:59;;;;;;;;;;;;;;;;;;1031279;28;819;-41
2022/01/19 01:05:29;;;;;;;;;;;;;;;;;;1032048;28;938;-41
2022/01/19 01:05:59;;;;;;;;;;;;;;;;;;1032116;28;933;-41
2022/01/19 01:06:30;;;;;;;;;;;;;;;;;;1032096;28;985;-41
2022/01/19 01:07:01;;;;;;;;;;;;;;;;;;1031658;28;1221;-40
2022/01/19 01:07:33;;;;;;;;;;;;;;;;;;1031727;28;906;-43
2022/01/19 01:08:03;;;;;;;;;;;;;;;;;;1031788;28;870;-39
2022/01/19 01:08:34;;;;;;;;;;;;;;;;;;1031940;28;771;-39
2022/01/19 01:09:04;;;;;;;;;;;;;;;;;;1032005;28;962;-41
2022/01/19 01:09:34;;;;;;;;;;;;;;;;;;1032209;28;962;-40
2022/01/19 01:10:07;;;;;;;;;;;;;;;;;;1031984;28;989;-40
2022/01/19 01:10:43;;;;;;;;;;;;;;;;;;1027686;28;1259;-40
2022/01/19 01:11:14;;;;;;;;;;;;;;;;;;1027696;28;875;-41
2022/01/19 01:12:52;;;;;;;;;;;;;;;;;;1030997;28;883;-41
2022/01/19 01:15:25;;;;;;;;;;;;;;;;;;1031463;28;1347;-41
2022/01/19 01:15:26;;;;;;;;;;;;;;;;;;1031698;28;1308;-41
2022/01/19 01:16:57;;;;;;;;;;;;;;;;;;1027695;28;1914;-40
2022/01/19 01:18:18;;;;;;;;;;;;;;;;;;1029807;28;867;-41
2022/01/19 01:18:48;;;;;;;;;;;;;;;;;;1027780;28;795;-41
2022/01/19 01:19:19;;;;;;;;;;;;;;;;;;1030864;28;791;-41
2022/01/19 01:19:49;;;;;;;;;;;;;;;;;;1032065;28;930;-41
2022/01/19 01:20:20;;;;;;;;;;;;;;;;;;1031619;28;1293;-41
2022/01/19 01:20:51;;;;;;;;;;;;;;;;;;1031473;28;946;-41
2022/01/19 01:21:22;;;;;;;;;;;;;;;;;;1035738;28;728;-41
2022/01/19 01:21:52;;;;;;;;;;;;;;;;;;1031787;28;1423;-41
2022/01/19 01:22:23;;;;;;;;;;;;;;;;;;1031618;28;957;-41
2022/01/19 01:22:53;;;;;;;;;;;;;;;;;;1031663;28;1192;-41
2022/01/19 01:23:24;;;;;;;;;;;;;;;;;;1023636;28;1132;-41
2022/01/19 01:23:56;;;;;;;;;;;;;;;;;;1031668;28;1154;-41
2022/01/19 01:24:26;;;;;;;;;;;;;;;;;;1031678;28;926;-40
2022/01/19 01:24:57;;;;;;;;;;;;;;;;;;1031980;28;839;-40
2022/01/19 01:25:28;;;;;;;;;;;;;;;;;;1035760;28;934;-41
2022/01/19 01:25:58;;;;;;;;;;;;;;;;;;1032012;28;949;-41
2022/01/19 01:26:29;;;;;;;;;;;;;;;;;;1031742;28;1095;-40
2022/01/19 01:26:59;;;;;;;;;;;;;;;;;;1032203;28;764;-41
2022/01/19 01:27:29;;;;;;;;;;;;;;;;;;1031945;28;843;-41
2022/01/19 01:28:00;;;;;;;;;;;;;;;;;;1032077;28;942;-40
2022/01/19 01:28:31;;;;;;;;;;;;;;;;;;1031689;28;1275;-41
2022/01/19 01:29:01;;;;;;;;;;;;;;;;;;1031496;28;815;-41
2022/01/19 01:29:32;;;;;;;;;;;;;;;;;;1031859;28;858;-43
2022/01/19 01:30:03;;;;;;;;;;;;;;;;;;1031519;28;1436;-41
2022/01/19 01:30:34;;;;;;;;;;;;;;;;;;1027606;28;819;-39
2022/01/19 01:31:07;;;;;;;;;;;;;;;;;;1023481;29;1320;-41
2022/01/19 01:31:38;;;;;;;;;;;;;;;;;;1020278;29;1170;-40
2022/01/19 01:32:08;;;;;;;;;;;;;;;;;;1023626;29;926;-40
2022/01/19 01:32:38;;;;;;;;;;;;;;;;;;1019911;29;839;-40
2022/01/19 01:33:09;;;;;;;;;;;;;;;;;;1019636;29;1017;-42
2022/01/19 01:33:40;;;;;;;;;;;;;;;;;;1023837;29;859;-41
2022/01/19 01:34:10;;;;;;;;;;;;;;;;;;1023679;28;1249;-40
2022/01/19 01:34:41;;;;;;;;;;;;;;;;;;1027763;28;803;-41
2022/01/19 01:35:11;;;;;;;;;;;;;;;;;;1027643;28;886;-41
2022/01/19 01:35:41;;;;;;;;;;;;;;;;;;1031484;28;1337;-41
2022/01/19 01:36:12;;;;;;;;;;;;;;;;;;1031654;28;1910;-41
2022/01/19 01:36:43;;;;;;;;;;;;;;;;;;1031614;28;1223;-40
2022/01/19 01:37:13;;;;;;;;;;;;;;;;;;1031410;28;1287;-41
2022/01/19 01:37:45;;;;;;;;;;;;;;;;;;1022927;29;1231;-41
2022/01/19 01:38:15;;;;;;;;;;;;;;;;;;1019697;29;1421;-41
2022/01/19 01:38:45;;;;;;;;;;;;;;;;;;1019677;28;1340;-40
2022/01/19 01:39:16;;;;;;;;;;;;;;;;;;1019752;29;966;-41
2022/01/19 01:39:46;;;;;;;;;;;;;;;;;;1027547;28;1325;-41
2022/01/19 01:40:17;;;;;;;;;;;;;;;;;;1027677;28;1253;-39
2022/01/19 01:40:51;;;;;;;;;;;;;;;;;;1023446;29;1190;-40
2022/01/19 01:41:21;;;;;;;;;;;;;;;;;;1023042;28;810;-41
2022/01/19 01:42:15;;;;;;;;;;;;;;;;;;1026872;28;1317;-41
2022/01/19 01:42:45;;;;;;;;;;;;;;;;;;1026675;28;1153;-40
2022/01/19 01:43:16;;;;;;;;;;;;;;;;;;1023551;29;1292;-38
2022/01/19 01:43:46;;;;;;;;;;;;;;;;;;1023222;29;1317;-40
2022/01/19 01:44:18;;;;;;;;;;;;;;;;;;1023879;28;831;-41
2022/01/19 01:44:51;;;;;;;;;;;;;;;;;;1023503;29;1170;-41
2022/01/19 01:45:28;;;;;;;;;;;;;;;;;;1024195;28;1340;-41
2022/01/19 01:46:04;;;;;;;;;;;;;;;;;;1026371;28;759;-41
2022/01/19 01:46:59;;;;;;;;;;;;;;;;;;1019624;29;1326;-41
2022/01/19 01:47:27;;;;;;;;;;;;;;;;;;1023196;29;1575;-42
2022/01/19 01:48:08;;;;;;;;;;;;;;;;;;1023702;29;834;-40
2022/01/19 01:48:45;;;;;;;;;;;;;;;;;;1024180;28;1339;-42
2022/01/19 01:49:27;;;;;;;;;;;;;;;;;;1027512;28;1333;-41
2022/01/19 01:53:52;;;;;;;;;;;;;;;;;;1031637;28;863;-41
2022/01/19 01:54:22;;;;;;;;;;;;;;;;;;1031519;28;977;-41
2022/01/19 01:54:53;;;;;;;;;;;;;;;;;;1031981;28;965;-41
2022/01/19 01:55:24;;;;;;;;;;;;;;;;;;1027451;28;1288;-41
2022/01/19 01:55:56;;;;;;;;;;;;;;;;;;1027385;28;1315;-40
2022/01/19 01:56:26;;;;;;;;;;;;;;;;;;1027466;28;1918;-42
2022/01/19 01:57:03;;;;;;;;;;;;;;;;;;1028518;28;1481;-39
2022/01/19 01:57:34;;;;;;;;;;;;;;;;;;1030581;28;1456;-41
2022/01/19 01:58:04;;;;;;;;;;;;;;;;;;1031344;28;1273;-41
2022/01/19 01:58:36;;;;;;;;;;;;;;;;;;1027508;28;1181;-40
2022/01/19 01:59:26;;;;;;;;;;;;;;;;;;1031702;28;591;-41
2022/01/19 02:00:26;;;;;;;;;;;;;;;;;;1023220;29;1169;-41
2022/01/19 02:00:58;;;;;;;;;;;;;;;;;;1027376;28;1291;-41
2022/01/19 02:01:28;;;;;;;;;;;;;;;;;;1027437;28;1174;-41
2022/01/19 02:01:59;;;;;;;;;;;;;;;;;;1023464;29;1383;-41
2022/01/19 02:02:29;;;;;;;;;;;;;;;;;;1027394;28;1316;-40
2022/01/19 02:02:59;;;;;;;;;;;;;;;;;;1023614;29;1122;-41
2022/01/19 02:03:37;;;;;;;;;;;;;;;;;;1023552;29;1135;-40
2022/01/19 02:04:07;;;;;;;;;;;;;;;;;;1027504;28;1054;-41
2022/01/19 02:04:41;;;;;;;;;;;;;;;;;;1023520;29;1347;-41
2022/01/19 02:05:13;;;;;;;;;;;;;;;;;;1024853;28;918;-41
2022/01/19 02:06:41;;;;;;;;;;;;;;;;;;1030105;28;1276;-40
2022/01/19 02:07:32;;;;;;;;;;;;;;;;;;1027508;28;1349;-40
2022/01/19 02:08:16;;;;;;;;;;;;;;;;;;1023524;29;1190;-39
2022/01/19 02:09:33;;;;;;;;;;;;;;;;;;1031520;28;1248;-41
2022/01/19 02:10:07;;;;;;;;;;;;;;;;;;1031308;28;1233;-40
2022/01/19 02:10:54;;;;;;;;;;;;;;;;;;1031351;28;783;-40
2022/01/19 02:16:18;;;;;;;;;;;;;;;;;;1027436;28;918;-40
2022/01/19 02:21:37;;;;;;;;;;;;;;;;;;1027263;28;768;-40
2022/01/19 02:22:04;;;;;;;;;;;;;;;;;;1027259;28;1458;-41
2022/01/19 02:22:36;;;;;;;;;;;;;;;;;;1032474;28;2292;-41
2022/01/19 02:23:15;;;;;;;;;;;;;;;;;;1035555;28;1018;-41
2022/01/19 02:23:50;;;;;;;;;;;;;;;;;;1031427;28;1319;-41
2022/01/19 02:24:21;;;;;;;;;;;;;;;;;;1029220;28;1179;-41
2022/01/19 02:24:51;;;;;;;;;;;;;;;;;;1027635;28;953;-41
2022/01/19 02:25:27;;;;;;;;;;;;;;;;;;1028038;28;874;-40
2022/01/19 02:26:00;;;;;;;;;;;;;;;;;;1031581;28;941;-40
2022/01/19 02:26:46;;;;;;;;;;;;;;;;;;1027249;28;1306;-39
2022/01/19 02:29:09;;;;;;;;;;;;;;;;;;1030236;28;1159;-40
2022/01/19 02:30:45;;;;;;;;;;;;;;;;;;1031444;28;918;-41
2022/01/19 02:36:37;;;;;;;;;;;;;;;;;;1027290;28;923;-41
2022/01/19 02:40:08;;;;;;;;;;;;;;;;;;1031827;28;993;-40
2022/01/19 02:40:13;;;;;;;;;;;;;;;;;;1032258;28;867;-40
2022/01/19 02:40:48;;;;;;;;;;;;;;;;;;1035588;28;767;-40
2022/01/19 02:41:18;;;;;;;;;;;;;;;;;;1027850;28;795;-41
2022/01/19 02:41:49;;;;;;;;;;;;;;;;;;1027413;28;843;-41
2022/01/19 02:42:23;;;;;;;;;;;;;;;;;;1027341;28;921;-41
2022/01/19 02:43:33;;;;;;;;;;;;;;;;;;1031260;28;899;-40
2022/01/19 02:44:04;;;;;;;;;;;;;;;;;;1027305;28;1307;-40
2022/01/19 02:49:17;;;;;;;;;;;;;;;;;;1027280;28;1190;-39
2022/01/19 02:49:39;;;;;;;;;;;;;;;;;;1024026;28;1248;-40
2022/01/19 02:50:10;;;;;;;;;;;;;;;;;;1027573;28;851;-41
2022/01/19 02:50:40;;;;;;;;;;;;;;;;;;1027091;28;981;-40
2022/01/19 02:51:11;;;;;;;;;;;;;;;;;;1027586;28;799;-40
2022/01/19 02:51:45;;;;;;;;;;;;;;;;;;1031608;28;543;-40
2022/01/19 02:52:17;;;;;;;;;;;;;;;;;;1031668;28;812;-40
2022/01/19 02:52:47;;;;;;;;;;;;;;;;;;1031799;28;851;-40
2022/01/19 02:53:17;;;;;;;;;;;;;;;;;;1031598;28;1008;-41
2022/01/19 02:53:48;;;;;;;;;;;;;;;;;;1031362;28;886;-41
2022/01/19 02:54:19;;;;;;;;;;;;;;;;;;1031481;28;831;-40
2022/01/19 02:54:51;;;;;;;;;;;;;;;;;;1027243;28;1432;-40
2022/01/19 02:55:22;;;;;;;;;;;;;;;;;;1027456;28;1094;-40
2022/01/19 02:55:53;;;;;;;;;;;;;;;;;;1027156;28;2442;-41
2022/01/19 02:56:28;;;;;;;;;;;;;;;;;;1027636;28;1993;-41
2022/01/19 02:57:01;;;;;;;;;;;;;;;;;;1031286;28;818;-41
2022/01/19 02:57:35;;;;;;;;;;;;;;;;;;1031474;28;752;-41
2022/01/19 02:58:05;;;;;;;;;;;;;;;;;;1031876;28;823;-40
2022/01/19 02:58:43;;;;;;;;;;;;;;;;;;1031130;28;1291;-40
2022/01/19 03:06:31;;;;;;;;;;;;;;;;;;1031371;28;1253;-40
2022/01/19 03:09:07;;;;;;;;;;;;;;;;;;1027394;28;1336;-39
2022/01/19 03:09:37;;;;;;;;;;;;;;;;;;1027067;28;1402;-41
2022/01/19 03:10:08;;;;;;;;;;;;;;;;;;1027266;28;1212;-40
2022/01/19 03:10:38;;;;;;;;;;;;;;;;;;1023196;28;1169;-41
2022/01/19 03:11:10;;;;;;;;;;;;;;;;;;1027235;28;986;-41
2022/01/19 03:11:40;;;;;;;;;;;;;;;;;;1023053;28;819;-41
2022/01/19 03:12:12;;;;;;;;;;;;;;;;;;1019778;29;1276;-40
2022/01/19 03:12:43;;;;;;;;;;;;;;;;;;1019421;29;1266;-41
2022/01/19 03:13:13;;;;;;;;;;;;;;;;;;1019492;29;820;-41
2022/01/19 03:13:45;;;;;;;;;;;;;;;;;;1023376;28;828;-40
2022/01/19 03:14:17;;;;;;;;;;;;;;;;;;1027307;28;783;-41
2022/01/19 03:14:48;;;;;;;;;;;;;;;;;;1027684;28;803;-40
2022/01/19 03:15:18;;;;;;;;;;;;;;;;;;1027201;28;653;-41
2022/01/19 03:15:48;;;;;;;;;;;;;;;;;;1023012;29;1312;-42
2022/01/19 03:16:20;;;;;;;;;;;;;;;;;;1019277;29;1918;-40
2022/01/19 03:16:50;;;;;;;;;;;;;;;;;;1019544;29;807;-41
2022/01/19 03:17:20;;;;;;;;;;;;;;;;;;1023192;28;1316;-41
2022/01/19 03:17:53;;;;;;;;;;;;;;;;;;1031373;28;1201;-41
2022/01/19 03:18:23;;;;;;;;;;;;;;;;;;1031243;28;1170;-41
2022/01/19 03:18:54;;;;;;;;;;;;;;;;;;1031206;28;1647;-41
2022/01/19 03:19:26;;;;;;;;;;;;;;;;;;1031111;28;834;-40
2022/01/19 03:19:56;;;;;;;;;;;;;;;;;;1022975;29;1130;-41
2022/01/19 03:20:28;;;;;;;;;;;;;;;;;;1023517;28;1146;-39
2022/01/19 03:20:58;;;;;;;;;;;;;;;;;;1023042;29;1252;-40
2022/01/19 03:21:29;;;;;;;;;;;;;;;;;;1027445;28;1225;-41
2022/01/19 03:21:59;;;;;;;;;;;;;;;;;;1027071;28;1242;-41
2022/01/19 03:22:37;;;;;;;;;;;;;;;;;;1027275;28;937;-40
2022/01/19 03:23:27;;;;;;;;;;;;;;;;;;1023310;29;1174;-40
2022/01/19 03:23:57;;;;;;;;;;;;;;;;;;1026632;28;779;-40
2022/01/19 03:24:37;;;;;;;;;;;;;;;;;;1027252;28;794;-41
2022/01/19 03:25:12;;;;;;;;;;;;;;;;;;1026831;28;1135;-40
2022/01/19 03:25:42;;;;;;;;;;;;;;;;;;1027304;28;850;-41
2022/01/19 03:26:13;;;;;;;;;;;;;;;;;;1027020;28;1340;-41
2022/01/19 03:27:04;;;;;;;;;;;;;;;;;;1020933;28;1087;-39
2022/01/19 03:27:47;;;;;;;;;;;;;;;;;;1027026;28;1225;-41
2022/01/19 03:28:18;;;;;;;;;;;;;;;;;;1027047;28;1346;-40
2022/01/19 03:28:48;;;;;;;;;;;;;;;;;;1022742;29;1373;-41
2022/01/19 03:29:20;;;;;;;;;;;;;;;;;;1023491;28;1484;-40
2022/01/19 03:29:51;;;;;;;;;;;;;;;;;;1027271;28;930;-40
2022/01/19 03:30:22;;;;;;;;;;;;;;;;;;1027047;28;812;-40
2022/01/19 03:30:52;;;;;;;;;;;;;;;;;;1031212;28;969;-41
2022/01/19 03:31:23;;;;;;;;;;;;;;;;;;1031288;28;961;-41
2022/01/19 03:31:53;;;;;;;;;;;;;;;;;;1030960;28;893;-41
2022/01/19 03:32:25;;;;;;;;;;;;;;;;;;1031220;28;969;-40
2022/01/19 03:32:55;;;;;;;;;;;;;;;;;;1027316;28;771;-40
2022/01/19 03:33:25;;;;;;;;;;;;;;;;;;1031314;28;1012;-40
2022/01/19 03:33:56;;;;;;;;;;;;;;;;;;1031478;28;846;-41
2022/01/19 03:34:28;;;;;;;;;;;;;;;;;;1031540;28;1001;-40
2022/01/19 03:35:04;;;;;;;;;;;;;;;;;;1031228;28;1450;-41
2022/01/19 03:35:35;;;;;;;;;;;;;;;;;;1031169;28;1273;-41
2022/01/19 03:36:05;;;;;;;;;;;;;;;;;;1031176;28;1587;-40
2022/01/19 03:36:36;;;;;;;;;;;;;;;;;;1026982;28;1911;-41
2022/01/19 03:37:08;;;;;;;;;;;;;;;;;;1027102;28;1314;-41
2022/01/19 03:37:39;;;;;;;;;;;;;;;;;;1023172;29;1194;-41
2022/01/19 03:38:10;;;;;;;;;;;;;;;;;;1027401;28;1190;-40
2022/01/19 03:38:40;;;;;;;;;;;;;;;;;;1026948;28;1197;-41
2022/01/19 03:39:10;;;;;;;;;;;;;;;;;;1027313;28;1163;-41
2022/01/19 03:39:41;;;;;;;;;;;;;;;;;;1031076;28;779;-41
2022/01/19 03:40:12;;;;;;;;;;;;;;;;;;1023184;28;1229;-39
2022/01/19 03:40:43;;;;;;;;;;;;;;;;;;1023294;29;1202;-41
2022/01/19 03:41:13;;;;;;;;;;;;;;;;;;1023002;29;858;-40
2022/01/19 03:41:43;;;;;;;;;;;;;;;;;;1019331;29;1177;-41
2022/01/19 03:42:14;;;;;;;;;;;;;;;;;;1019251;29;1154;-41
2022/01/19 03:42:44;;;;;;;;;;;;;;;;;;1023203;29;1326;-40
2022/01/19 03:43:16;;;;;;;;;;;;;;;;;;1022926;28;1192;-40
2022/01/19 03:44:01;;;;;;;;;;;;;;;;;;1021164;29;1338;-40
2022/01/19 03:44:32;;;;;;;;;;;;;;;;;;1019231;29;1588;-40
2022/01/19 03:45:03;;;;;;;;;;;;;;;;;;1021252;29;1386;-39
2022/01/19 03:45:35;;;;;;;;;;;;;;;;;;1019353;29;1374;-40
2022/01/19 03:46:13;;;;;;;;;;;;;;;;;;1023538;28;962;-41
2022/01/19 03:46:56;;;;;;;;;;;;;;;;;;1023159;29;1363;-38
2022/01/19 03:47:27;;;;;;;;;;;;;;;;;;1026068;28;812;-40
2022/01/19 03:49:24;;;;;;;;;;;;;;;;;;1031004;28;1182;-39
2022/01/19 03:49:55;;;;;;;;;;;;;;;;;;1027014;28;1509;-40
2022/01/19 03:50:25;;;;;;;;;;;;;;;;;;1023142;29;1231;-40
2022/01/19 03:50:56;;;;;;;;;;;;;;;;;;1018937;29;1281;-37
2022/01/19 03:51:26;;;;;;;;;;;;;;;;;;1019249;29;1174;-40
2022/01/19 03:51:59;;;;;;;;;;;;;;;;;;1018869;29;1211;-39
2022/01/19 03:52:30;;;;;;;;;;;;;;;;;;1019689;29;1026;-40
2022/01/19 03:53:00;;;;;;;;;;;;;;;;;;1023463;28;1296;-39
2022/01/19 03:53:31;;;;;;;;;;;;;;;;;;1027309;28;796;-39
2022/01/19 03:54:01;;;;;;;;;;;;;;;;;;1027077;28;1504;-39
2022/01/19 03:54:33;;;;;;;;;;;;;;;;;;1027169;28;938;-38
2022/01/19 03:55:05;;;;;;;;;;;;;;;;;;1027250;28;870;-40
2022/01/19 03:55:35;;;;;;;;;;;;;;;;;;1027468;28;815;-40
2022/01/19 03:56:05;;;;;;;;;;;;;;;;;;1027043;28;1598;-41
2022/01/19 03:56:36;;;;;;;;;;;;;;;;;;1031029;28;1977;-38
2022/01/19 03:57:07;;;;;;;;;;;;;;;;;;1030996;28;1072;-38
2022/01/19 03:57:38;;;;;;;;;;;;;;;;;;1027285;28;1350;-39
2022/01/19 03:58:08;;;;;;;;;;;;;;;;;;1026966;28;930;-41
2022/01/19 03:58:39;;;;;;;;;;;;;;;;;;1026906;28;1713;-37
2022/01/19 03:59:09;;;;;;;;;;;;;;;;;;1027193;28;1200;-41
2022/01/19 03:59:40;;;;;;;;;;;;;;;;;;1026949;28;1386;-40
2022/01/19 04:00:11;;;;;;;;;;;;;;;;;;1027016;28;1273;-40
2022/01/19 04:00:53;;;;;;;;;;;;;;;;;;1027126;28;796;-41
2022/01/19 04:01:23;;;;;;;;;;;;;;;;;;1023047;29;1168;-40
2022/01/19 04:01:54;;;;;;;;;;;;;;;;;;1024694;28;756;-40
2022/01/19 04:02:25;;;;;;;;;;;;;;;;;;1023052;29;1203;-40
2022/01/19 04:02:56;;;;;;;;;;;;;;;;;;1023352;28;866;-40
2022/01/19 04:04:37;;;;;;;;;;;;;;;;;;1022852;29;1222;-39
2022/01/19 04:05:23;;;;;;;;;;;;;;;;;;1018763;29;1430;-40
2022/01/19 04:07:08;;;;;;;;;;;;;;;;;;1016571;29;1394;-41
2022/01/19 04:07:39;;;;;;;;;;;;;;;;;;1035116;28;1388;-40
2022/01/19 04:08:09;;;;;;;;;;;;;;;;;;1035021;28;794;-41
2022/01/19 04:08:39;;;;;;;;;;;;;;;;;;1033238;28;1205;-41
2022/01/19 04:09:10;;;;;;;;;;;;;;;;;;1030987;28;1226;-41
2022/01/19 04:09:42;;;;;;;;;;;;;;;;;;1031098;28;1275;-40
2022/01/19 04:10:13;;;;;;;;;;;;;;;;;;1030635;28;826;-41
2022/01/19 04:10:43;;;;;;;;;;;;;;;;;;1027447;28;1284;-41
2022/01/19 04:11:16;;;;;;;;;;;;;;;;;;1030911;28;1544;-40
2022/01/19 04:11:46;;;;;;;;;;;;;;;;;;1026957;28;1292;-39
2022/01/19 04:12:25;;;;;;;;;;;;;;;;;;1027064;28;890;-40
2022/01/19 04:13:09;;;;;;;;;;;;;;;;;;1027065;28;911;-41
2022/01/19 04:14:21;;;;;;;;;;;;;;;;;;1025921;28;1198;-40
2022/01/19 04:14:36;;;;;;;;;;;;;;;;;;1026878;28;1534;-40
2022/01/19 04:15:07;;;;;;;;;;;;;;;;;;1031141;28;1336;-41
2022/01/19 04:15:37;;;;;;;;;;;;;;;;;;1031061;28;925;-41
2022/01/19 04:16:08;;;;;;;;;;;;;;;;;;1031066;28;941;-41
2022/01/19 04:16:38;;;;;;;;;;;;;;;;;;1030961;28;1906;-40
2022/01/19 04:17:13;;;;;;;;;;;;;;;;;;1027074;28;831;-41
2022/01/19 04:17:51;;;;;;;;;;;;;;;;;;1023117;29;1198;-40
2022/01/19 04:18:22;;;;;;;;;;;;;;;;;;1022912;29;1532;-41
2022/01/19 04:19:02;;;;;;;;;;;;;;;;;;1023044;29;1582;-40
2022/01/19 04:20:10;;;;;;;;;;;;;;;;;;1025266;28;1319;-41
2022/01/19 04:20:43;;;;;;;;;;;;;;;;;;1023035;29;1193;-40
2022/01/19 04:21:15;;;;;;;;;;;;;;;;;;1021369;29;1186;-40
2022/01/19 04:21:45;;;;;;;;;;;;;;;;;;1019651;29;1366;-42
2022/01/19 04:22:20;;;;;;;;;;;;;;;;;;1018996;29;1170;-41
2022/01/19 04:22:53;;;;;;;;;;;;;;;;;;1019053;29;1627;-38
2022/01/19 04:23:23;;;;;;;;;;;;;;;;;;1020195;29;859;-41
2022/01/19 04:23:54;;;;;;;;;;;;;;;;;;1018953;29;907;-41
2022/01/19 04:24:24;;;;;;;;;;;;;;;;;;1019206;29;791;-41
2022/01/19 04:24:55;;;;;;;;;;;;;;;;;;1019004;29;1230;-41
2022/01/19 04:25:26;;;;;;;;;;;;;;;;;;1019241;29;1218;-41
2022/01/19 04:25:57;;;;;;;;;;;;;;;;;;1022950;29;1166;-41
2022/01/19 04:26:29;;;;;;;;;;;;;;;;;;1018854;29;1477;-41
2022/01/19 04:27:52;;;;;;;;;;;;;;;;;;1018184;29;879;-41
2022/01/19 04:28:22;;;;;;;;;;;;;;;;;;1025910;28;1311;-40
2022/01/19 04:28:55;;;;;;;;;;;;;;;;;;1026107;28;1344;-40
2022/01/19 04:29:25;;;;;;;;;;;;;;;;;;1023031;29;1182;-40
2022/01/19 04:30:08;;;;;;;;;;;;;;;;;;1022831;29;808;-41
2022/01/19 04:30:45;;;;;;;;;;;;;;;;;;1021545;29;1213;-41
2022/01/19 04:31:16;;;;;;;;;;;;;;;;;;1021343;29;1174;-41
2022/01/19 04:31:46;;;;;;;;;;;;;;;;;;1023114;29;1355;-41
2022/01/19 04:32:34;;;;;;;;;;;;;;;;;;1018972;29;973;-40
2022/01/19 04:33:15;;;;;;;;;;;;;;;;;;1025425;28;1454;-40
2022/01/19 04:33:47;;;;;;;;;;;;;;;;;;1027057;28;1190;-40
2022/01/19 04:34:19;;;;;;;;;;;;;;;;;;1026859;28;1154;-40
2022/01/19 04:34:50;;;;;;;;;;;;;;;;;;1021281;29;1217;-40